CheckWX is a tool to help pilots better visualize weather data.  It is not intended as a substitute for an official pre-flight weather briefing.

21:36:25 UTC

PACD TAF
Cold Bay Airport
Cold Bay, Alaska, USA
PACD 261741Z 2618/2718 36020KT 6SM -SHSN OVC025 TEMPO 2618/2620 3SM -SHSN BKN018 FM262000 36020G30KT 4SM -SHSN OVC020 FM270300 34027G37KT 2SM -SHSN BLSN OVC015 FM270600 35020G30KT 4SM -SHSN BLSN OVC020

Jan-26@
18:00 UTC

Jan-26 @ 18:00 UTC

Jan-26@
20:00 UTC

Jan-26 @ 20:00 UTC

PACD 261741Z 2618/2718 36020KT 6SM -SHSN OVC025

Expired

Wind
  • 360° at 20 KTS
Conditions
Light Snow
Cloud Levels
  • Overcast at 2,500' AGL

Jan-26@
18:00 UTC

Jan-26 @ 18:00 UTC

Jan-26@
20:00 UTC

Jan-26 @ 20:00 UTC

TEMPO 2618/2620 3SM -SHSN BKN018

Expired

Conditions
Light Snow
Cloud Levels
  • Broken at 1,800' AGL

Jan-26@
20:00 UTC

Jan-26 @ 20:00 UTC

Jan-27@
03:00 UTC

Jan-27 @ 03:00 UTC

FM262000 36020G30KT 4SM -SHSN OVC020

From

From Standard forecast or significant change

Wind
  • 360° at 20 KTS
  • {Gusting to 30 KTS
Conditions
Light Snow
Cloud Levels
  • Overcast at 2,000' AGL

Jan-27@
03:00 UTC

Jan-27 @ 03:00 UTC

Jan-27@
06:00 UTC

Jan-27 @ 06:00 UTC

FM270300 34027G37KT 2SM -SHSN BLSN OVC015

From

From Standard forecast or significant change

Wind
  • 340° at 27 KTS
  • {Gusting to 37 KTS
Conditions
Light Snow, Blowing Snow
Cloud Levels
  • Overcast at 1,500' AGL

Jan-27@
06:00 UTC

Jan-27 @ 06:00 UTC

Jan-27@
18:00 UTC

Jan-27 @ 18:00 UTC

FM270600 35020G30KT 4SM -SHSN BLSN OVC020

From

From Standard forecast or significant change

Wind
  • 350° at 20 KTS
  • {Gusting to 30 KTS
Conditions
Light Snow, Blowing Snow
Cloud Levels
  • Overcast at 2,000' AGL